createdAt,value
2022-09-30T00:00:27.743Z,4.95
2022-09-30T00:05:28.494Z,4.98
2022-09-30T00:10:29.277Z,4.85
2022-09-30T00:15:30.014Z,4.97
2022-09-30T00:20:30.960Z,5.10
2022-09-30T00:25:31.926Z,5.07
2022-09-30T00:30:33.811Z,5.16
2022-09-30T00:35:36.281Z,5.08
2022-09-30T00:40:38.374Z,5.01
2022-09-30T00:45:44.035Z,5.05
2022-09-30T00:50:48.928Z,5.01
2022-09-30T00:56:06.823Z,5.09
2022-09-30T01:01:09.270Z,5.06
2022-09-30T01:06:10.181Z,5.08
2022-09-30T01:11:11.125Z,4.91
2022-09-30T01:16:44.739Z,4.92
2022-09-30T01:22:48.273Z,4.70
2022-09-30T01:31:35.518Z,4.80
2022-09-30T01:39:37.925Z,4.83
2022-09-30T01:45:12.472Z,4.91
2022-09-30T01:50:22.170Z,4.85
2022-09-30T01:55:35.504Z,4.94
2022-09-30T02:00:38.586Z,4.96
2022-09-30T02:05:50.534Z,4.94
2022-09-30T02:11:02.503Z,4.96
2022-09-30T02:16:11.990Z,4.93
2022-09-30T02:21:18.953Z,4.88
2022-09-30T02:26:24.420Z,4.84
2022-09-30T02:31:27.853Z,4.75
2022-09-30T02:36:34.019Z,4.73
2022-09-30T02:41:43.547Z,4.75
2022-09-30T02:47:10.837Z,4.81
2022-09-30T02:52:29.208Z,4.75
2022-09-30T02:58:08.095Z,4.66
2022-09-30T03:03:23.004Z,4.52
2022-09-30T03:08:25.674Z,4.45
2022-09-30T03:19:14.611Z,4.49
2022-09-30T03:25:46.782Z,4.52
2022-09-30T03:32:32.933Z,4.59
2022-09-30T03:37:55.583Z,4.60
2022-09-30T03:43:04.942Z,4.59
2022-09-30T03:48:10.343Z,4.54
2022-09-30T03:53:12.368Z,4.57
2022-09-30T03:58:14.403Z,4.59
2022-09-30T04:03:16.398Z,4.55
2022-09-30T04:08:17.260Z,4.34
2022-09-30T04:13:18.013Z,4.22
2022-09-30T04:18:18.798Z,4.15
2022-09-30T04:23:19.518Z,4.20
2022-09-30T04:28:22.426Z,4.27
2022-09-30T04:33:23.166Z,4.38
2022-09-30T04:38:24.938Z,4.47
2022-09-30T04:43:25.977Z,4.51
2022-09-30T04:48:28.085Z,4.44
2022-09-30T04:53:29.534Z,4.37
2022-09-30T04:58:36.690Z,4.21
2022-09-30T05:03:39.052Z,4.31
2022-09-30T05:08:45.670Z,4.32
2022-09-30T05:13:48.319Z,4.32
2022-09-30T05:18:49.348Z,4.34
2022-09-30T05:23:50.261Z,4.28
2022-09-30T05:28:51.003Z,4.46
2022-09-30T05:33:57.719Z,4.39
2022-09-30T05:38:59.626Z,4.30
2022-09-30T05:44:00.740Z,4.17
2022-09-30T05:49:01.498Z,4.47
2022-09-30T05:54:02.537Z,4.77
2022-09-30T05:59:07.011Z,5.11
2022-09-30T06:04:07.808Z,5.44
2022-09-30T06:09:08.782Z,5.59
2022-09-30T06:14:09.670Z,5.83
2022-09-30T06:19:10.943Z,5.97
2022-09-30T06:24:14.235Z,6.11
2022-09-30T06:29:14.953Z,6.34
2022-09-30T06:34:15.880Z,6.69
2022-09-30T06:39:16.699Z,6.94
2022-09-30T06:44:17.468Z,7.03
2022-09-30T06:49:18.189Z,6.95
2022-09-30T06:54:20.200Z,6.87
2022-09-30T06:59:22.445Z,6.92
2022-09-30T07:04:24.017Z,7.17
2022-09-30T07:09:25.313Z,7.38
2022-09-30T07:14:26.197Z,7.42
2022-09-30T07:19:26.963Z,7.51
2022-09-30T07:24:29.341Z,7.87
2022-09-30T07:29:44.431Z,8.09
2022-09-30T07:34:57.626Z,8.32
2022-09-30T07:39:58.439Z,8.57
2022-09-30T07:45:00.148Z,8.79
2022-09-30T07:50:01.358Z,8.75
2022-09-30T07:55:02.246Z,8.92
2022-09-30T08:00:23.061Z,9.13
2022-09-30T08:05:40.519Z,9.46
2022-09-30T08:10:41.612Z,9.80
2022-09-30T08:15:42.741Z,10.04
2022-09-30T08:20:43.619Z,10.28
2022-09-30T08:25:44.618Z,10.46
2022-09-30T08:30:45.353Z,10.64
2022-09-30T08:35:46.261Z,10.67
2022-09-30T08:43:55.935Z,10.79
2022-09-30T08:50:09.977Z,11.06
2022-09-30T08:55:17.967Z,11.38
2022-09-30T09:00:20.854Z,11.57
2022-09-30T09:07:00.261Z,11.57
2022-09-30T09:12:13.973Z,11.78
2022-09-30T09:18:45.140Z,11.47
2022-09-30T09:23:48.599Z,11.83
2022-09-30T09:30:42.765Z,11.92
2022-09-30T09:35:52.653Z,12.15
2022-09-30T09:45:02.035Z,12.57
2022-09-30T09:50:12.638Z,12.48
2022-09-30T09:55:18.073Z,12.90
2022-09-30T10:00:43.619Z,12.67
2022-09-30T10:05:46.923Z,12.96
2022-09-30T10:10:49.498Z,13.14
2022-09-30T10:15:53.979Z,13.31
2022-09-30T10:21:01.655Z,13.01
2022-09-30T10:31:32.766Z,13.21
2022-09-30T10:36:36.100Z,13.19
2022-09-30T10:41:38.038Z,13.16
2022-09-30T10:46:40.979Z,13.27
2022-09-30T10:51:45.339Z,12.62
2022-09-30T10:56:51.849Z,12.70
2022-09-30T11:02:13.486Z,13.12
2022-09-30T11:07:29.210Z,13.51
2022-09-30T11:12:41.184Z,13.20
2022-09-30T11:17:56.897Z,13.32
2022-09-30T11:23:10.663Z,13.83
2022-09-30T11:28:31.490Z,14.03
2022-09-30T11:33:58.715Z,14.36
2022-09-30T11:42:39.979Z,14.17
2022-09-30T11:48:01.512Z,13.73
2022-09-30T11:53:36.452Z,14.20
2022-09-30T11:58:42.788Z,14.78
2022-09-30T12:03:54.624Z,14.87
2022-09-30T12:09:01.997Z,15.56
2022-09-30T12:14:10.998Z,15.48
2022-09-30T12:19:25.112Z,15.39
2022-09-30T12:24:41.566Z,15.65
2022-09-30T12:30:15.102Z,15.67
2022-09-30T12:37:59.925Z,15.79
2022-09-30T12:43:27.012Z,15.58
2022-09-30T12:48:41.835Z,15.45
2022-09-30T12:53:43.705Z,15.49
2022-09-30T12:58:48.588Z,16.02
2022-09-30T13:04:38.496Z,15.87
2022-09-30T13:09:57.780Z,15.17
2022-09-30T13:15:45.162Z,15.50
2022-09-30T13:27:56.371Z,15.02
2022-09-30T13:33:40.062Z,14.41
2022-09-30T13:38:41.711Z,13.65
2022-09-30T13:44:30.818Z,13.60
2022-09-30T13:49:46.001Z,13.53
2022-09-30T13:54:49.712Z,13.50
2022-09-30T14:00:52.513Z,13.61
2022-09-30T14:06:19.835Z,13.70
2022-09-30T14:12:14.008Z,13.58
2022-09-30T14:20:39.650Z,13.61
2022-09-30T14:25:51.474Z,13.43
2022-09-30T14:31:12.123Z,14.29
2022-09-30T14:36:19.271Z,14.95
2022-09-30T14:41:23.269Z,15.33
2022-09-30T14:46:38.089Z,15.12
2022-09-30T14:51:42.624Z,15.20
2022-09-30T14:56:43.701Z,15.11
2022-09-30T15:01:47.383Z,15.01
2022-09-30T15:06:51.702Z,14.75
2022-09-30T15:11:52.636Z,14.45
2022-09-30T15:16:56.499Z,14.46
2022-09-30T15:22:01.906Z,14.33
2022-09-30T15:27:04.273Z,14.05
2022-09-30T15:32:20.457Z,13.88
2022-09-30T15:37:23.664Z,13.56
2022-09-30T15:42:35.910Z,13.55
2022-09-30T15:47:57.631Z,13.42
2022-09-30T15:53:03.795Z,13.46
2022-09-30T15:58:39.687Z,13.38
2022-09-30T16:03:58.199Z,13.26
2022-09-30T16:09:03.675Z,13.20
2022-09-30T16:14:08.953Z,12.98
2022-09-30T16:19:17.038Z,12.80
2022-09-30T16:25:20.275Z,12.70
2022-09-30T16:30:21.551Z,12.42
2022-09-30T16:35:24.356Z,12.18
2022-09-30T16:40:26.525Z,12.12
2022-09-30T16:45:28.021Z,12.05
2022-09-30T16:50:37.601Z,12.03
2022-09-30T16:55:39.295Z,11.95
2022-09-30T17:00:43.576Z,11.84
2022-09-30T17:05:46.234Z,11.72
2022-09-30T17:10:49.525Z,11.56
2022-09-30T17:15:50.965Z,11.48
2022-09-30T17:20:53.160Z,11.25
2022-09-30T17:25:54.235Z,11.06
2022-09-30T17:30:55.000Z,10.89
2022-09-30T17:35:58.564Z,10.84
2022-09-30T17:41:18.731Z,10.77
2022-09-30T17:46:22.451Z,10.61
2022-09-30T17:51:23.284Z,10.40
2022-09-30T17:56:24.097Z,10.33
2022-09-30T18:01:25.110Z,10.18
2022-09-30T18:06:27.907Z,10.00
2022-09-30T18:11:31.034Z,9.99
2022-09-30T18:16:33.192Z,9.87
2022-09-30T18:21:36.171Z,9.56
2022-09-30T18:26:37.166Z,9.40
2022-09-30T18:31:39.134Z,9.17
2022-09-30T18:36:41.723Z,9.02
2022-09-30T18:41:45.608Z,8.92
2022-09-30T18:46:46.873Z,8.76
2022-09-30T18:51:48.035Z,8.81
2022-09-30T18:56:50.110Z,8.65
2022-09-30T19:01:51.239Z,8.61
2022-09-30T19:06:52.190Z,8.61
2022-09-30T19:11:53.031Z,8.58
2022-09-30T19:16:54.095Z,8.59
2022-09-30T19:21:59.513Z,8.46
2022-09-30T19:27:00.276Z,8.51
2022-09-30T19:32:01.571Z,8.47
2022-09-30T19:37:02.504Z,8.34
2022-09-30T19:42:04.195Z,8.21
2022-09-30T19:47:05.217Z,8.11
2022-09-30T19:52:15.883Z,8.08
2022-09-30T19:57:23.463Z,7.97
2022-09-30T20:02:24.320Z,7.86
2022-09-30T20:07:27.335Z,7.97
2022-09-30T20:12:28.327Z,7.78
2022-09-30T20:17:29.179Z,7.62
2022-09-30T20:22:30.287Z,7.67
2022-09-30T20:27:32.193Z,7.68
2022-09-30T20:32:32.980Z,7.96
2022-09-30T20:37:33.768Z,8.25
2022-09-30T20:42:37.103Z,8.19
2022-09-30T20:47:39.351Z,8.34
2022-09-30T20:52:40.108Z,8.55
2022-09-30T20:57:41.870Z,8.64
2022-09-30T21:02:42.938Z,8.50
2022-09-30T21:07:44.000Z,8.42
2022-09-30T21:12:45.656Z,8.50
2022-09-30T21:17:46.573Z,8.45
2022-09-30T21:22:47.658Z,8.28
2022-09-30T21:27:48.814Z,8.15
2022-09-30T21:32:49.666Z,8.13
2022-09-30T21:37:50.431Z,8.13
2022-09-30T21:42:51.480Z,8.05
2022-09-30T21:48:00.959Z,7.96
2022-09-30T21:53:02.290Z,7.88
2022-09-30T21:58:03.093Z,7.87
2022-09-30T22:03:03.845Z,7.81
2022-09-30T22:08:05.094Z,7.79
2022-09-30T22:13:05.903Z,7.57
2022-09-30T22:18:12.207Z,7.55
2022-09-30T22:23:14.290Z,7.52
2022-09-30T22:28:15.318Z,7.53
2022-09-30T22:33:34.578Z,7.61
2022-09-30T22:38:35.666Z,7.51
2022-09-30T22:43:36.506Z,7.71
2022-09-30T22:48:37.582Z,7.66
2022-09-30T22:53:38.345Z,7.50
2022-09-30T22:58:39.097Z,7.44
2022-09-30T23:03:41.513Z,7.51
2022-09-30T23:08:42.414Z,7.43
2022-09-30T23:13:45.539Z,7.38
2022-09-30T23:18:46.304Z,7.31
2022-09-30T23:23:48.122Z,7.25
2022-09-30T23:28:48.905Z,7.35
2022-09-30T23:33:52.432Z,7.36
2022-09-30T23:38:53.173Z,7.38
2022-09-30T23:43:54.351Z,7.46
2022-09-30T23:48:55.208Z,7.63
2022-09-30T23:53:56.001Z,7.79
2022-09-30T23:58:58.129Z,7.70
